sensor_id;sensor_type;location;lat;lon;timestamp;P1;durP1;ratioP1;P2;durP2;ratioP2
37305;SDS011;23193;42.656;21.170;2023-09-18T00:00:53;20.13;;;14.40;;
37305;SDS011;23193;42.656;21.170;2023-09-18T00:03:23;19.20;;;14.63;;
37305;SDS011;23193;42.656;21.170;2023-09-18T00:05:51;25.13;;;15.05;;
37305;SDS011;23193;42.656;21.170;2023-09-18T00:08:20;21.15;;;15.15;;
37305;SDS011;23193;42.656;21.170;2023-09-18T00:10:52;21.25;;;15.07;;
37305;SDS011;23193;42.656;21.170;2023-09-18T00:13:21;23.15;;;15.93;;
37305;SDS011;23193;42.656;21.170;2023-09-18T00:15:49;26.05;;;15.43;;
37305;SDS011;23193;42.656;21.170;2023-09-18T00:18:18;21.23;;;15.73;;
37305;SDS011;23193;42.656;21.170;2023-09-18T00:20:46;20.25;;;15.48;;
37305;SDS011;23193;42.656;21.170;2023-09-18T00:23:16;21.23;;;15.40;;
37305;SDS011;23193;42.656;21.170;2023-09-18T00:25:44;22.00;;;15.80;;
37305;SDS011;23193;42.656;21.170;2023-09-18T00:28:12;25.23;;;15.82;;
37305;SDS011;23193;42.656;21.170;2023-09-18T00:30:46;23.02;;;16.83;;
37305;SDS011;23193;42.656;21.170;2023-09-18T00:33:16;25.00;;;15.30;;
37305;SDS011;23193;42.656;21.170;2023-09-18T00:35:47;24.88;;;15.57;;
37305;SDS011;23193;42.656;21.170;2023-09-18T00:38:15;29.63;;;16.77;;
37305;SDS011;23193;42.656;21.170;2023-09-18T00:40:44;26.80;;;16.05;;
37305;SDS011;23193;42.656;21.170;2023-09-18T00:43:12;29.25;;;17.15;;
37305;SDS011;23193;42.656;21.170;2023-09-18T00:45:40;31.55;;;17.65;;
37305;SDS011;23193;42.656;21.170;2023-09-18T00:48:09;22.73;;;17.13;;
37305;SDS011;23193;42.656;21.170;2023-09-18T00:50:37;25.10;;;18.98;;
37305;SDS011;23193;42.656;21.170;2023-09-18T00:53:07;27.33;;;19.10;;
37305;SDS011;23193;42.656;21.170;2023-09-18T00:55:36;29.67;;;19.35;;
37305;SDS011;23193;42.656;21.170;2023-09-18T00:58:05;23.55;;;17.42;;
37305;SDS011;23193;42.656;21.170;2023-09-18T01:00:34;27.70;;;17.42;;
37305;SDS011;23193;42.656;21.170;2023-09-18T01:03:01;27.90;;;17.35;;
37305;SDS011;23193;42.656;21.170;2023-09-18T01:05:34;20.88;;;15.57;;
37305;SDS011;23193;42.656;21.170;2023-09-18T01:08:03;24.83;;;15.13;;
37305;SDS011;23193;42.656;21.170;2023-09-18T01:10:36;27.20;;;16.13;;
37305;SDS011;23193;42.656;21.170;2023-09-18T01:13:10;24.45;;;15.43;;
37305;SDS011;23193;42.656;21.170;2023-09-18T01:15:43;19.60;;;15.25;;
37305;SDS011;23193;42.656;21.170;2023-09-18T01:18:12;19.73;;;15.95;;
37305;SDS011;23193;42.656;21.170;2023-09-18T01:20:40;23.02;;;15.57;;
37305;SDS011;23193;42.656;21.170;2023-09-18T01:23:08;16.60;;;14.32;;
37305;SDS011;23193;42.656;21.170;2023-09-18T01:25:38;26.20;;;16.50;;
37305;SDS011;23193;42.656;21.170;2023-09-18T01:28:06;20.08;;;14.93;;
37305;SDS011;23193;42.656;21.170;2023-09-18T01:30:34;30.00;;;16.65;;
37305;SDS011;23193;42.656;21.170;2023-09-18T01:33:02;25.73;;;16.02;;
37305;SDS011;23193;42.656;21.170;2023-09-18T01:35:31;22.55;;;15.50;;
37305;SDS011;23193;42.656;21.170;2023-09-18T01:37:59;18.85;;;14.63;;
37305;SDS011;23193;42.656;21.170;2023-09-18T01:40:27;28.50;;;16.95;;
37305;SDS011;23193;42.656;21.170;2023-09-18T01:42:57;21.58;;;16.13;;
37305;SDS011;23193;42.656;21.170;2023-09-18T01:45:25;22.33;;;15.75;;
37305;SDS011;23193;42.656;21.170;2023-09-18T01:47:53;24.30;;;15.95;;
37305;SDS011;23193;42.656;21.170;2023-09-18T01:50:21;23.23;;;16.63;;
37305;SDS011;23193;42.656;21.170;2023-09-18T01:52:49;24.35;;;16.88;;
37305;SDS011;23193;42.656;21.170;2023-09-18T01:55:18;18.75;;;15.70;;
37305;SDS011;23193;42.656;21.170;2023-09-18T01:57:46;27.23;;;16.08;;
37305;SDS011;23193;42.656;21.170;2023-09-18T02:00:14;24.13;;;16.20;;
37305;SDS011;23193;42.656;21.170;2023-09-18T02:02:42;23.00;;;16.38;;
37305;SDS011;23193;42.656;21.170;2023-09-18T02:05:30;21.08;;;15.82;;
37305;SDS011;23193;42.656;21.170;2023-09-18T02:07:59;23.15;;;15.25;;
37305;SDS011;23193;42.656;21.170;2023-09-18T02:10:27;22.08;;;16.40;;
37305;SDS011;23193;42.656;21.170;2023-09-18T02:12:55;21.30;;;16.10;;
37305;SDS011;23193;42.656;21.170;2023-09-18T02:15:23;24.13;;;15.48;;
37305;SDS011;23193;42.656;21.170;2023-09-18T02:17:52;23.95;;;15.85;;
37305;SDS011;23193;42.656;21.170;2023-09-18T02:20:20;24.73;;;16.05;;
37305;SDS011;23193;42.656;21.170;2023-09-18T02:22:48;31.65;;;16.10;;
37305;SDS011;23193;42.656;21.170;2023-09-18T02:25:16;25.35;;;15.60;;
37305;SDS011;23193;42.656;21.170;2023-09-18T02:27:44;22.08;;;16.52;;
37305;SDS011;23193;42.656;21.170;2023-09-18T02:30:12;24.20;;;16.63;;
37305;SDS011;23193;42.656;21.170;2023-09-18T02:32:40;25.55;;;15.30;;
37305;SDS011;23193;42.656;21.170;2023-09-18T02:35:09;22.40;;;15.25;;
37305;SDS011;23193;42.656;21.170;2023-09-18T02:37:37;22.38;;;17.52;;
37305;SDS011;23193;42.656;21.170;2023-09-18T02:40:06;24.77;;;16.65;;
37305;SDS011;23193;42.656;21.170;2023-09-18T02:42:34;27.60;;;16.67;;
37305;SDS011;23193;42.656;21.170;2023-09-18T02:45:02;21.27;;;15.63;;
37305;SDS011;23193;42.656;21.170;2023-09-18T02:47:30;26.63;;;16.92;;
37305;SDS011;23193;42.656;21.170;2023-09-18T02:50:01;20.20;;;16.40;;
37305;SDS011;23193;42.656;21.170;2023-09-18T02:52:31;23.20;;;16.13;;
37305;SDS011;23193;42.656;21.170;2023-09-18T02:54:59;21.13;;;15.85;;
37305;SDS011;23193;42.656;21.170;2023-09-18T02:57:27;18.90;;;15.27;;
37305;SDS011;23193;42.656;21.170;2023-09-18T02:59:55;25.90;;;16.98;;
37305;SDS011;23193;42.656;21.170;2023-09-18T03:02:23;21.08;;;15.95;;
37305;SDS011;23193;42.656;21.170;2023-09-18T03:04:51;21.65;;;16.52;;
37305;SDS011;23193;42.656;21.170;2023-09-18T03:07:19;19.38;;;14.93;;
37305;SDS011;23193;42.656;21.170;2023-09-18T03:09:47;19.92;;;16.15;;
37305;SDS011;23193;42.656;21.170;2023-09-18T03:12:15;24.80;;;16.15;;
37305;SDS011;23193;42.656;21.170;2023-09-18T03:14:43;23.02;;;15.45;;
37305;SDS011;23193;42.656;21.170;2023-09-18T03:17:11;24.27;;;16.65;;
37305;SDS011;23193;42.656;21.170;2023-09-18T03:19:39;24.25;;;16.77;;
37305;SDS011;23193;42.656;21.170;2023-09-18T03:24:38;21.90;;;15.60;;
37305;SDS011;23193;42.656;21.170;2023-09-18T03:27:06;28.25;;;16.27;;
37305;SDS011;23193;42.656;21.170;2023-09-18T03:29:34;23.70;;;16.42;;
37305;SDS011;23193;42.656;21.170;2023-09-18T03:32:02;25.92;;;17.70;;
37305;SDS011;23193;42.656;21.170;2023-09-18T03:34:30;21.25;;;16.58;;
37305;SDS011;23193;42.656;21.170;2023-09-18T03:36:58;22.65;;;17.25;;
37305;SDS011;23193;42.656;21.170;2023-09-18T03:39:26;22.42;;;16.13;;
37305;SDS011;23193;42.656;21.170;2023-09-18T03:41:54;24.95;;;16.95;;
37305;SDS011;23193;42.656;21.170;2023-09-18T03:44:22;24.98;;;16.75;;
37305;SDS011;23193;42.656;21.170;2023-09-18T03:46:50;20.10;;;15.50;;
37305;SDS011;23193;42.656;21.170;2023-09-18T03:49:19;24.27;;;17.52;;
37305;SDS011;23193;42.656;21.170;2023-09-18T03:51:50;28.42;;;17.02;;
37305;SDS011;23193;42.656;21.170;2023-09-18T03:54:17;26.02;;;18.27;;
37305;SDS011;23193;42.656;21.170;2023-09-18T03:56:45;25.02;;;18.27;;
37305;SDS011;23193;42.656;21.170;2023-09-18T03:59:13;27.27;;;18.98;;
37305;SDS011;23193;42.656;21.170;2023-09-18T04:01:41;24.35;;;18.58;;
37305;SDS011;23193;42.656;21.170;2023-09-18T04:04:09;27.05;;;17.90;;
37305;SDS011;23193;42.656;21.170;2023-09-18T04:06:41;28.70;;;18.98;;
37305;SDS011;23193;42.656;21.170;2023-09-18T04:09:10;24.77;;;18.65;;
37305;SDS011;23193;42.656;21.170;2023-09-18T04:11:38;31.33;;;18.80;;
37305;SDS011;23193;42.656;21.170;2023-09-18T04:14:06;30.23;;;20.10;;
37305;SDS011;23193;42.656;21.170;2023-09-18T04:16:34;27.98;;;19.13;;
37305;SDS011;23193;42.656;21.170;2023-09-18T04:19:03;27.25;;;19.23;;
37305;SDS011;23193;42.656;21.170;2023-09-18T04:21:31;32.40;;;19.67;;
37305;SDS011;23193;42.656;21.170;2023-09-18T04:23:59;31.17;;;18.90;;
37305;SDS011;23193;42.656;21.170;2023-09-18T04:26:27;27.02;;;18.85;;
37305;SDS011;23193;42.656;21.170;2023-09-18T04:29:00;27.90;;;19.95;;
37305;SDS011;23193;42.656;21.170;2023-09-18T04:31:30;29.63;;;17.80;;
37305;SDS011;23193;42.656;21.170;2023-09-18T04:33:58;32.25;;;17.88;;
37305;SDS011;23193;42.656;21.170;2023-09-18T04:36:26;24.98;;;17.50;;
37305;SDS011;23193;42.656;21.170;2023-09-18T04:38:54;24.80;;;17.42;;
37305;SDS011;23193;42.656;21.170;2023-09-18T04:41:22;35.67;;;19.90;;
37305;SDS011;23193;42.656;21.170;2023-09-18T04:43:53;37.33;;;19.27;;
37305;SDS011;23193;42.656;21.170;2023-09-18T04:46:21;29.48;;;19.83;;
37305;SDS011;23193;42.656;21.170;2023-09-18T04:48:48;29.27;;;18.77;;
37305;SDS011;23193;42.656;21.170;2023-09-18T04:51:17;31.17;;;18.73;;
37305;SDS011;23193;42.656;21.170;2023-09-18T04:53:45;27.67;;;17.25;;
37305;SDS011;23193;42.656;21.170;2023-09-18T04:56:13;26.45;;;18.17;;
37305;SDS011;23193;42.656;21.170;2023-09-18T04:58:41;24.50;;;16.90;;
37305;SDS011;23193;42.656;21.170;2023-09-18T05:01:09;30.88;;;17.55;;
37305;SDS011;23193;42.656;21.170;2023-09-18T05:03:39;27.58;;;17.15;;
37305;SDS011;23193;42.656;21.170;2023-09-18T05:06:09;30.60;;;17.92;;
37305;SDS011;23193;42.656;21.170;2023-09-18T05:08:37;24.42;;;16.58;;
37305;SDS011;23193;42.656;21.170;2023-09-18T05:11:06;29.92;;;16.45;;
37305;SDS011;23193;42.656;21.170;2023-09-18T05:13:34;25.90;;;16.33;;
37305;SDS011;23193;42.656;21.170;2023-09-18T05:16:02;28.05;;;16.05;;
37305;SDS011;23193;42.656;21.170;2023-09-18T05:18:30;27.48;;;17.35;;
37305;SDS011;23193;42.656;21.170;2023-09-18T05:20:58;29.38;;;17.42;;
37305;SDS011;23193;42.656;21.170;2023-09-18T05:23:26;27.67;;;19.70;;
37305;SDS011;23193;42.656;21.170;2023-09-18T05:25:54;35.15;;;22.75;;
37305;SDS011;23193;42.656;21.170;2023-09-18T05:28:22;30.95;;;20.85;;
37305;SDS011;23193;42.656;21.170;2023-09-18T05:30:50;24.63;;;19.75;;
37305;SDS011;23193;42.656;21.170;2023-09-18T05:33:18;33.10;;;19.30;;
37305;SDS011;23193;42.656;21.170;2023-09-18T05:35:46;29.27;;;19.42;;
37305;SDS011;23193;42.656;21.170;2023-09-18T05:38:15;27.70;;;18.58;;
37305;SDS011;23193;42.656;21.170;2023-09-18T05:40:44;26.58;;;16.98;;
37305;SDS011;23193;42.656;21.170;2023-09-18T05:43:13;38.70;;;17.50;;
37305;SDS011;23193;42.656;21.170;2023-09-18T05:45:42;32.25;;;16.98;;
37305;SDS011;23193;42.656;21.170;2023-09-18T05:48:10;26.88;;;17.45;;
37305;SDS011;23193;42.656;21.170;2023-09-18T05:50:38;22.55;;;16.88;;
37305;SDS011;23193;42.656;21.170;2023-09-18T05:53:08;28.10;;;18.20;;
37305;SDS011;23193;42.656;21.170;2023-09-18T05:55:36;33.20;;;17.60;;
37305;SDS011;23193;42.656;21.170;2023-09-18T05:58:04;25.38;;;17.38;;
37305;SDS011;23193;42.656;21.170;2023-09-18T06:00:33;29.17;;;18.45;;
37305;SDS011;23193;42.656;21.170;2023-09-18T06:03:01;31.20;;;18.05;;
37305;SDS011;23193;42.656;21.170;2023-09-18T06:05:30;27.73;;;18.40;;
37305;SDS011;23193;42.656;21.170;2023-09-18T06:07:58;32.95;;;18.63;;
37305;SDS011;23193;42.656;21.170;2023-09-18T06:10:26;31.25;;;18.95;;
37305;SDS011;23193;42.656;21.170;2023-09-18T06:12:55;40.05;;;22.88;;
37305;SDS011;23193;42.656;21.170;2023-09-18T06:15:23;45.47;;;24.55;;
37305;SDS011;23193;42.656;21.170;2023-09-18T06:17:51;43.67;;;22.15;;
37305;SDS011;23193;42.656;21.170;2023-09-18T06:20:19;37.35;;;23.77;;
37305;SDS011;23193;42.656;21.170;2023-09-18T06:22:47;44.60;;;23.63;;
37305;SDS011;23193;42.656;21.170;2023-09-18T06:25:15;40.90;;;23.70;;
37305;SDS011;23193;42.656;21.170;2023-09-18T06:27:43;35.90;;;22.17;;
37305;SDS011;23193;42.656;21.170;2023-09-18T06:30:11;41.83;;;23.27;;
37305;SDS011;23193;42.656;21.170;2023-09-18T06:32:39;45.03;;;22.83;;
37305;SDS011;23193;42.656;21.170;2023-09-18T06:35:08;46.97;;;27.30;;
37305;SDS011;23193;42.656;21.170;2023-09-18T06:37:36;56.78;;;31.48;;
37305;SDS011;23193;42.656;21.170;2023-09-18T06:40:04;40.47;;;23.83;;
37305;SDS011;23193;42.656;21.170;2023-09-18T06:42:32;38.70;;;22.10;;
37305;SDS011;23193;42.656;21.170;2023-09-18T06:45:00;38.58;;;23.48;;
37305;SDS011;23193;42.656;21.170;2023-09-18T06:47:30;41.80;;;23.95;;
37305;SDS011;23193;42.656;21.170;2023-09-18T06:49:58;45.33;;;25.25;;
37305;SDS011;23193;42.656;21.170;2023-09-18T06:52:27;43.13;;;23.83;;
37305;SDS011;23193;42.656;21.170;2023-09-18T06:54:55;46.47;;;24.98;;
37305;SDS011;23193;42.656;21.170;2023-09-18T06:57:24;40.65;;;25.48;;
37305;SDS011;23193;42.656;21.170;2023-09-18T06:59:52;38.75;;;26.02;;
37305;SDS011;23193;42.656;21.170;2023-09-18T07:02:21;43.15;;;24.08;;
37305;SDS011;23193;42.656;21.170;2023-09-18T07:04:49;50.53;;;27.15;;
37305;SDS011;23193;42.656;21.170;2023-09-18T07:07:17;45.20;;;26.15;;
37305;SDS011;23193;42.656;21.170;2023-09-18T07:09:52;40.05;;;24.67;;
37305;SDS011;23193;42.656;21.170;2023-09-18T07:12:31;40.42;;;25.23;;
37305;SDS011;23193;42.656;21.170;2023-09-18T07:15:00;37.33;;;24.38;;
37305;SDS011;23193;42.656;21.170;2023-09-18T07:17:30;41.38;;;26.20;;
37305;SDS011;23193;42.656;21.170;2023-09-18T07:19:58;43.92;;;25.85;;
37305;SDS011;23193;42.656;21.170;2023-09-18T07:22:27;43.53;;;25.42;;
37305;SDS011;23193;42.656;21.170;2023-09-18T07:24:57;43.85;;;23.92;;
37305;SDS011;23193;42.656;21.170;2023-09-18T07:27:25;38.83;;;24.60;;
37305;SDS011;23193;42.656;21.170;2023-09-18T07:29:55;40.20;;;25.67;;
37305;SDS011;23193;42.656;21.170;2023-09-18T07:32:24;42.50;;;25.58;;
37305;SDS011;23193;42.656;21.170;2023-09-18T07:35:03;45.03;;;25.52;;
37305;SDS011;23193;42.656;21.170;2023-09-18T07:37:31;44.60;;;25.60;;
37305;SDS011;23193;42.656;21.170;2023-09-18T07:40:01;41.30;;;25.30;;
37305;SDS011;23193;42.656;21.170;2023-09-18T07:42:28;40.55;;;23.92;;
37305;SDS011;23193;42.656;21.170;2023-09-18T07:44:56;55.78;;;25.10;;
37305;SDS011;23193;42.656;21.170;2023-09-18T07:47:25;51.70;;;24.98;;
37305;SDS011;23193;42.656;21.170;2023-09-18T07:49:55;45.38;;;24.80;;
37305;SDS011;23193;42.656;21.170;2023-09-18T07:52:23;49.88;;;24.48;;
37305;SDS011;23193;42.656;21.170;2023-09-18T07:54:51;42.85;;;22.48;;
37305;SDS011;23193;42.656;21.170;2023-09-18T07:57:18;53.40;;;23.92;;
37305;SDS011;23193;42.656;21.170;2023-09-18T07:59:47;43.95;;;26.30;;
37305;SDS011;23193;42.656;21.170;2023-09-18T08:02:15;39.15;;;22.63;;
37305;SDS011;23193;42.656;21.170;2023-09-18T08:04:44;39.25;;;22.10;;
37305;SDS011;23193;42.656;21.170;2023-09-18T08:07:12;44.45;;;19.67;;
37305;SDS011;23193;42.656;21.170;2023-09-18T08:09:40;40.75;;;18.55;;
37305;SDS011;23193;42.656;21.170;2023-09-18T08:12:09;33.33;;;20.08;;
37305;SDS011;23193;42.656;21.170;2023-09-18T08:14:37;29.58;;;17.92;;
37305;SDS011;23193;42.656;21.170;2023-09-18T08:17:05;38.03;;;20.60;;
37305;SDS011;23193;42.656;21.170;2023-09-18T08:19:36;43.67;;;20.95;;
37305;SDS011;23193;42.656;21.170;2023-09-18T08:22:07;46.20;;;20.48;;
37305;SDS011;23193;42.656;21.170;2023-09-18T08:24:37;54.90;;;25.10;;
37305;SDS011;23193;42.656;21.170;2023-09-18T08:27:05;57.88;;;22.50;;
37305;SDS011;23193;42.656;21.170;2023-09-18T08:29:33;59.50;;;26.88;;
37305;SDS011;23193;42.656;21.170;2023-09-18T08:32:01;39.72;;;22.48;;
37305;SDS011;23193;42.656;21.170;2023-09-18T08:34:29;40.40;;;22.60;;
37305;SDS011;23193;42.656;21.170;2023-09-18T08:36:57;45.80;;;23.23;;
37305;SDS011;23193;42.656;21.170;2023-09-18T08:39:25;46.35;;;22.50;;
37305;SDS011;23193;42.656;21.170;2023-09-18T08:41:54;44.15;;;21.38;;
37305;SDS011;23193;42.656;21.170;2023-09-18T08:44:23;43.95;;;23.67;;
37305;SDS011;23193;42.656;21.170;2023-09-18T08:46:54;52.92;;;29.15;;
37305;SDS011;23193;42.656;21.170;2023-09-18T08:49:23;63.15;;;35.00;;
37305;SDS011;23193;42.656;21.170;2023-09-18T08:51:51;34.30;;;20.63;;
37305;SDS011;23193;42.656;21.170;2023-09-18T08:54:22;25.92;;;17.52;;
37305;SDS011;23193;42.656;21.170;2023-09-18T08:56:51;30.88;;;18.25;;
37305;SDS011;23193;42.656;21.170;2023-09-18T09:01:49;36.05;;;20.50;;
37305;SDS011;23193;42.656;21.170;2023-09-18T09:04:17;33.33;;;20.45;;
37305;SDS011;23193;42.656;21.170;2023-09-18T09:06:46;36.42;;;20.40;;
37305;SDS011;23193;42.656;21.170;2023-09-18T09:09:14;28.88;;;18.63;;
37305;SDS011;23193;42.656;21.170;2023-09-18T09:11:47;35.65;;;18.70;;
37305;SDS011;23193;42.656;21.170;2023-09-18T09:14:16;30.75;;;16.98;;
37305;SDS011;23193;42.656;21.170;2023-09-18T09:16:55;31.70;;;17.55;;
37305;SDS011;23193;42.656;21.170;2023-09-18T09:19:34;24.52;;;16.50;;
37305;SDS011;23193;42.656;21.170;2023-09-18T09:22:09;31.30;;;16.42;;
37305;SDS011;23193;42.656;21.170;2023-09-18T09:24:43;29.95;;;17.55;;
37305;SDS011;23193;42.656;21.170;2023-09-18T09:27:12;28.77;;;18.70;;
37305;SDS011;23193;42.656;21.170;2023-09-18T09:29:42;27.27;;;19.45;;
37305;SDS011;23193;42.656;21.170;2023-09-18T09:32:16;24.70;;;18.25;;
37305;SDS011;23193;42.656;21.170;2023-09-18T09:34:45;22.92;;;15.65;;
37305;SDS011;23193;42.656;21.170;2023-09-18T09:39:49;28.90;;;15.77;;
37305;SDS011;23193;42.656;21.170;2023-09-18T09:42:19;18.58;;;13.32;;
37305;SDS011;23193;42.656;21.170;2023-09-18T09:45:01;21.10;;;14.18;;
37305;SDS011;23193;42.656;21.170;2023-09-18T09:47:36;26.33;;;16.27;;
37305;SDS011;23193;42.656;21.170;2023-09-18T09:50:08;27.08;;;20.25;;
37305;SDS011;23193;42.656;21.170;2023-09-18T09:52:41;32.42;;;19.55;;
37305;SDS011;23193;42.656;21.170;2023-09-18T09:55:21;27.02;;;15.18;;
37305;SDS011;23193;42.656;21.170;2023-09-18T09:57:51;27.15;;;16.33;;
37305;SDS011;23193;42.656;21.170;2023-09-18T10:00:20;22.92;;;15.35;;
37305;SDS011;23193;42.656;21.170;2023-09-18T10:02:57;27.25;;;15.70;;
37305;SDS011;23193;42.656;21.170;2023-09-18T10:05:32;25.75;;;18.35;;
37305;SDS011;23193;42.656;21.170;2023-09-18T10:08:02;27.20;;;16.63;;
37305;SDS011;23193;42.656;21.170;2023-09-18T10:10:33;42.30;;;22.73;;
37305;SDS011;23193;42.656;21.170;2023-09-18T10:15:32;30.60;;;17.17;;
37305;SDS011;23193;42.656;21.170;2023-09-18T10:18:07;24.27;;;15.75;;
37305;SDS011;23193;42.656;21.170;2023-09-18T10:20:37;26.52;;;15.18;;
37305;SDS011;23193;42.656;21.170;2023-09-18T10:23:15;25.95;;;14.45;;
37305;SDS011;23193;42.656;21.170;2023-09-18T10:25:51;23.98;;;14.90;;
37305;SDS011;23193;42.656;21.170;2023-09-18T10:28:23;23.38;;;14.90;;
37305;SDS011;23193;42.656;21.170;2023-09-18T10:30:56;28.02;;;16.17;;
37305;SDS011;23193;42.656;21.170;2023-09-18T10:33:24;23.15;;;13.15;;
37305;SDS011;23193;42.656;21.170;2023-09-18T10:35:53;19.63;;;14.15;;
37305;SDS011;23193;42.656;21.170;2023-09-18T10:38:21;26.90;;;14.38;;
37305;SDS011;23193;42.656;21.170;2023-09-18T10:40:50;31.10;;;13.43;;
37305;SDS011;23193;42.656;21.170;2023-09-18T10:43:18;21.27;;;13.45;;
37305;SDS011;23193;42.656;21.170;2023-09-18T10:45:46;21.55;;;12.90;;
37305;SDS011;23193;42.656;21.170;2023-09-18T10:48:17;26.60;;;13.48;;
37305;SDS011;23193;42.656;21.170;2023-09-18T10:50:45;28.08;;;14.05;;
37305;SDS011;23193;42.656;21.170;2023-09-18T10:53:13;20.15;;;12.98;;
37305;SDS011;23193;42.656;21.170;2023-09-18T10:55:41;23.73;;;13.23;;
37305;SDS011;23193;42.656;21.170;2023-09-18T10:58:10;18.10;;;13.43;;
37305;SDS011;23193;42.656;21.170;2023-09-18T11:00:37;21.60;;;12.77;;
37305;SDS011;23193;42.656;21.170;2023-09-18T11:03:15;20.35;;;12.40;;
37305;SDS011;23193;42.656;21.170;2023-09-18T11:05:47;23.13;;;12.18;;
37305;SDS011;23193;42.656;21.170;2023-09-18T11:10:55;14.77;;;10.18;;
37305;SDS011;23193;42.656;21.170;2023-09-18T11:13:29;17.40;;;11.30;;
37305;SDS011;23193;42.656;21.170;2023-09-18T11:16:01;13.27;;;9.55;;
37305;SDS011;23193;42.656;21.170;2023-09-18T11:21:30;12.02;;;9.35;;
37305;SDS011;23193;42.656;21.170;2023-09-18T11:24:06;12.93;;;8.23;;
37305;SDS011;23193;42.656;21.170;2023-09-18T11:26:41;13.40;;;8.82;;
37305;SDS011;23193;42.656;21.170;2023-09-18T11:29:10;9.25;;;7.63;;
37305;SDS011;23193;42.656;21.170;2023-09-18T11:36:47;12.15;;;7.32;;
37305;SDS011;23193;42.656;21.170;2023-09-18T11:39:34;21.42;;;9.70;;
37305;SDS011;23193;42.656;21.170;2023-09-18T11:42:10;18.25;;;10.52;;
37305;SDS011;23193;42.656;21.170;2023-09-18T11:44:41;12.13;;;8.40;;
37305;SDS011;23193;42.656;21.170;2023-09-18T11:47:17;16.05;;;8.32;;
37305;SDS011;23193;42.656;21.170;2023-09-18T11:49:49;23.17;;;9.23;;
37305;SDS011;23193;42.656;21.170;2023-09-18T11:52:22;13.32;;;7.60;;
37305;SDS011;23193;42.656;21.170;2023-09-18T11:54:52;12.60;;;8.20;;
37305;SDS011;23193;42.656;21.170;2023-09-18T11:57:21;12.35;;;7.93;;
37305;SDS011;23193;42.656;21.170;2023-09-18T11:59:49;14.13;;;9.13;;
37305;SDS011;23193;42.656;21.170;2023-09-18T12:04:55;13.27;;;8.75;;
37305;SDS011;23193;42.656;21.170;2023-09-18T12:07:23;11.93;;;8.90;;
37305;SDS011;23193;42.656;21.170;2023-09-18T12:09:51;11.40;;;7.95;;
37305;SDS011;23193;42.656;21.170;2023-09-18T12:12:21;16.30;;;8.98;;
37305;SDS011;23193;42.656;21.170;2023-09-18T12:14:49;10.65;;;8.18;;
37305;SDS011;23193;42.656;21.170;2023-09-18T12:17:20;12.57;;;7.80;;
37305;SDS011;23193;42.656;21.170;2023-09-18T12:19:52;16.65;;;8.13;;
37305;SDS011;23193;42.656;21.170;2023-09-18T12:22:26;16.58;;;7.75;;
37305;SDS011;23193;42.656;21.170;2023-09-18T12:25:15;16.90;;;8.43;;
37305;SDS011;23193;42.656;21.170;2023-09-18T12:27:44;13.93;;;8.65;;
37305;SDS011;23193;42.656;21.170;2023-09-18T12:30:12;13.15;;;8.00;;
37305;SDS011;23193;42.656;21.170;2023-09-18T12:32:47;21.27;;;9.02;;
37305;SDS011;23193;42.656;21.170;2023-09-18T12:35:16;13.10;;;8.27;;
37305;SDS011;23193;42.656;21.170;2023-09-18T12:37:45;16.23;;;8.13;;
37305;SDS011;23193;42.656;21.170;2023-09-18T12:40:23;11.50;;;8.27;;
37305;SDS011;23193;42.656;21.170;2023-09-18T12:42:51;10.40;;;6.88;;
37305;SDS011;23193;42.656;21.170;2023-09-18T12:45:20;13.68;;;7.53;;
37305;SDS011;23193;42.656;21.170;2023-09-18T12:47:49;12.98;;;7.75;;
37305;SDS011;23193;42.656;21.170;2023-09-18T12:50:18;15.40;;;8.48;;
37305;SDS011;23193;42.656;21.170;2023-09-18T12:52:45;15.38;;;7.82;;
37305;SDS011;23193;42.656;21.170;2023-09-18T12:55:23;12.73;;;7.40;;
37305;SDS011;23193;42.656;21.170;2023-09-18T12:57:51;15.77;;;8.50;;
37305;SDS011;23193;42.656;21.170;2023-09-18T13:00:20;11.75;;;7.63;;
37305;SDS011;23193;42.656;21.170;2023-09-18T13:02:50;14.90;;;8.10;;
37305;SDS011;23193;42.656;21.170;2023-09-18T13:05:22;11.68;;;7.35;;
37305;SDS011;23193;42.656;21.170;2023-09-18T13:07:54;16.40;;;7.57;;
37305;SDS011;23193;42.656;21.170;2023-09-18T13:10:23;12.98;;;8.38;;
37305;SDS011;23193;42.656;21.170;2023-09-18T13:12:55;12.02;;;8.60;;
37305;SDS011;23193;42.656;21.170;2023-09-18T13:15:32;18.52;;;8.00;;
37305;SDS011;23193;42.656;21.170;2023-09-18T13:18:08;11.95;;;7.90;;
37305;SDS011;23193;42.656;21.170;2023-09-18T13:20:36;9.82;;;7.20;;
37305;SDS011;23193;42.656;21.170;2023-09-18T13:23:04;13.07;;;7.75;;
37305;SDS011;23193;42.656;21.170;2023-09-18T13:25:33;12.20;;;6.72;;
37305;SDS011;23193;42.656;21.170;2023-09-18T13:28:02;11.43;;;7.60;;
37305;SDS011;23193;42.656;21.170;2023-09-18T13:30:30;11.18;;;7.40;;
37305;SDS011;23193;42.656;21.170;2023-09-18T13:33:02;10.60;;;7.95;;
37305;SDS011;23193;42.656;21.170;2023-09-18T13:35:31;11.07;;;7.72;;
37305;SDS011;23193;42.656;21.170;2023-09-18T13:38:00;11.68;;;7.50;;
37305;SDS011;23193;42.656;21.170;2023-09-18T13:40:31;14.13;;;7.30;;
37305;SDS011;23193;42.656;21.170;2023-09-18T13:43:00;10.05;;;7.32;;
37305;SDS011;23193;42.656;21.170;2023-09-18T13:45:27;12.35;;;7.70;;
37305;SDS011;23193;42.656;21.170;2023-09-18T13:47:55;14.40;;;8.05;;
37305;SDS011;23193;42.656;21.170;2023-09-18T13:50:23;13.23;;;7.40;;
37305;SDS011;23193;42.656;21.170;2023-09-18T13:52:51;21.75;;;8.45;;
37305;SDS011;23193;42.656;21.170;2023-09-18T13:55:20;11.15;;;7.65;;
37305;SDS011;23193;42.656;21.170;2023-09-18T13:57:48;16.48;;;8.38;;
37305;SDS011;23193;42.656;21.170;2023-09-18T14:00:16;24.00;;;10.77;;
37305;SDS011;23193;42.656;21.170;2023-09-18T14:02:44;17.10;;;8.40;;
37305;SDS011;23193;42.656;21.170;2023-09-18T14:05:14;13.27;;;8.32;;
37305;SDS011;23193;42.656;21.170;2023-09-18T14:07:44;10.98;;;7.20;;
37305;SDS011;23193;42.656;21.170;2023-09-18T14:10:12;14.90;;;7.95;;
37305;SDS011;23193;42.656;21.170;2023-09-18T14:12:41;15.88;;;8.18;;
37305;SDS011;23193;42.656;21.170;2023-09-18T14:15:09;10.90;;;7.82;;
37305;SDS011;23193;42.656;21.170;2023-09-18T14:17:37;12.57;;;7.53;;
37305;SDS011;23193;42.656;21.170;2023-09-18T14:20:05;23.25;;;8.55;;
37305;SDS011;23193;42.656;21.170;2023-09-18T14:22:34;14.02;;;7.88;;
37305;SDS011;23193;42.656;21.170;2023-09-18T14:25:02;15.15;;;7.97;;
37305;SDS011;23193;42.656;21.170;2023-09-18T14:27:33;15.10;;;8.02;;
37305;SDS011;23193;42.656;21.170;2023-09-18T14:30:02;12.50;;;7.85;;
37305;SDS011;23193;42.656;21.170;2023-09-18T14:32:34;12.77;;;7.78;;
37305;SDS011;23193;42.656;21.170;2023-09-18T14:35:04;18.13;;;8.95;;
37305;SDS011;23193;42.656;21.170;2023-09-18T14:37:36;14.15;;;7.10;;
37305;SDS011;23193;42.656;21.170;2023-09-18T14:40:05;16.15;;;8.10;;
37305;SDS011;23193;42.656;21.170;2023-09-18T14:42:39;12.00;;;8.05;;
37305;SDS011;23193;42.656;21.170;2023-09-18T14:45:07;11.80;;;7.93;;
37305;SDS011;23193;42.656;21.170;2023-09-18T14:47:35;12.82;;;7.60;;